sensor_id;sensor_type;location;lat;lon;timestamp;temperature;humidity
44565;DHT22;30275;51.822;-0.326;2023-04-16T00:00:16;6.10;99.90
44565;DHT22;30275;51.822;-0.326;2023-04-16T00:02:42;6.10;99.90
44565;DHT22;30275;51.822;-0.326;2023-04-16T00:05:07;6.20;99.90
44565;DHT22;30275;51.822;-0.326;2023-04-16T00:07:33;6.30;99.90
44565;DHT22;30275;51.822;-0.326;2023-04-16T00:09:58;6.30;99.90
44565;DHT22;30275;51.822;-0.326;2023-04-16T00:12:24;6.30;99.90
44565;DHT22;30275;51.822;-0.326;2023-04-16T00:14:50;6.30;99.90
44565;DHT22;30275;51.822;-0.326;2023-04-16T00:17:15;6.40;99.90
44565;DHT22;30275;51.822;-0.326;2023-04-16T00:19:41;6.40;99.90
44565;DHT22;30275;51.822;-0.326;2023-04-16T00:22:06;6.50;99.90
44565;DHT22;30275;51.822;-0.326;2023-04-16T00:24:32;6.50;99.90
44565;DHT22;30275;51.822;-0.326;2023-04-16T00:26:57;6.50;99.90
44565;DHT22;30275;51.822;-0.326;2023-04-16T00:29:23;6.50;99.90
44565;DHT22;30275;51.822;-0.326;2023-04-16T00:31:49;6.50;99.90
44565;DHT22;30275;51.822;-0.326;2023-04-16T00:34:14;6.60;99.90
44565;DHT22;30275;51.822;-0.326;2023-04-16T00:36:40;6.60;99.90
44565;DHT22;30275;51.822;-0.326;2023-04-16T00:39:05;6.50;99.90
44565;DHT22;30275;51.822;-0.326;2023-04-16T00:41:31;6.50;99.90
44565;DHT22;30275;51.822;-0.326;2023-04-16T00:43:57;6.50;99.90
44565;DHT22;30275;51.822;-0.326;2023-04-16T00:46:22;6.50;99.90
44565;DHT22;30275;51.822;-0.326;2023-04-16T00:48:50;6.60;99.90
44565;DHT22;30275;51.822;-0.326;2023-04-16T00:51:17;6.60;99.90
44565;DHT22;30275;51.822;-0.326;2023-04-16T00:53:45;6.60;99.90
44565;DHT22;30275;51.822;-0.326;2023-04-16T00:56:11;6.60;99.90
44565;DHT22;30275;51.822;-0.326;2023-04-16T00:58:37;6.60;99.90
44565;DHT22;30275;51.822;-0.326;2023-04-16T01:01:03;6.60;99.90
44565;DHT22;30275;51.822;-0.326;2023-04-16T01:03:43;6.70;99.90
44565;DHT22;30275;51.822;-0.326;2023-04-16T01:06:10;6.70;99.90
44565;DHT22;30275;51.822;-0.326;2023-04-16T01:08:35;6.70;99.90
44565;DHT22;30275;51.822;-0.326;2023-04-16T01:11:01;6.60;99.90
44565;DHT22;30275;51.822;-0.326;2023-04-16T01:13:28;6.60;99.90
44565;DHT22;30275;51.822;-0.326;2023-04-16T01:15:53;6.70;99.90
44565;DHT22;30275;51.822;-0.326;2023-04-16T01:18:20;6.80;99.90
44565;DHT22;30275;51.822;-0.326;2023-04-16T01:20:47;6.80;99.90
44565;DHT22;30275;51.822;-0.326;2023-04-16T01:23:13;6.70;99.90
44565;DHT22;30275;51.822;-0.326;2023-04-16T01:25:39;6.70;99.90
44565;DHT22;30275;51.822;-0.326;2023-04-16T01:28:05;6.70;99.90
44565;DHT22;30275;51.822;-0.326;2023-04-16T01:30:30;6.60;99.90
44565;DHT22;30275;51.822;-0.326;2023-04-16T01:32:56;6.70;99.90
44565;DHT22;30275;51.822;-0.326;2023-04-16T01:35:23;6.80;99.90
44565;DHT22;30275;51.822;-0.326;2023-04-16T01:37:49;6.80;99.90
44565;DHT22;30275;51.822;-0.326;2023-04-16T01:40:15;6.80;99.90
44565;DHT22;30275;51.822;-0.326;2023-04-16T01:42:41;6.80;99.90
44565;DHT22;30275;51.822;-0.326;2023-04-16T01:45:07;6.70;99.90
44565;DHT22;30275;51.822;-0.326;2023-04-16T01:47:32;6.70;99.90
44565;DHT22;30275;51.822;-0.326;2023-04-16T01:49:59;6.70;99.90
44565;DHT22;30275;51.822;-0.326;2023-04-16T01:52:24;6.70;99.90
44565;DHT22;30275;51.822;-0.326;2023-04-16T01:54:50;6.70;99.90
44565;DHT22;30275;51.822;-0.326;2023-04-16T01:57:16;6.60;99.90
44565;DHT22;30275;51.822;-0.326;2023-04-16T01:59:41;6.60;99.90
44565;DHT22;30275;51.822;-0.326;2023-04-16T02:02:11;6.60;99.90
44565;DHT22;30275;51.822;-0.326;2023-04-16T02:04:38;6.50;99.90
44565;DHT22;30275;51.822;-0.326;2023-04-16T02:07:04;6.50;99.90
44565;DHT22;30275;51.822;-0.326;2023-04-16T02:09:30;6.40;99.90
44565;DHT22;30275;51.822;-0.326;2023-04-16T02:11:56;6.40;99.90
44565;DHT22;30275;51.822;-0.326;2023-04-16T02:14:22;6.40;99.90
44565;DHT22;30275;51.822;-0.326;2023-04-16T02:16:50;6.30;99.90
44565;DHT22;30275;51.822;-0.326;2023-04-16T02:19:16;6.30;99.90
44565;DHT22;30275;51.822;-0.326;2023-04-16T02:21:42;6.20;99.90
44565;DHT22;30275;51.822;-0.326;2023-04-16T02:24:07;6.20;99.90
44565;DHT22;30275;51.822;-0.326;2023-04-16T02:26:33;6.10;99.90
44565;DHT22;30275;51.822;-0.326;2023-04-16T02:28:59;6.10;99.90
44565;DHT22;30275;51.822;-0.326;2023-04-16T02:31:24;6.00;99.90
44565;DHT22;30275;51.822;-0.326;2023-04-16T02:33:50;6.00;99.90
44565;DHT22;30275;51.822;-0.326;2023-04-16T02:36:16;6.10;99.90
44565;DHT22;30275;51.822;-0.326;2023-04-16T02:38:41;6.00;99.90
44565;DHT22;30275;51.822;-0.326;2023-04-16T02:41:07;6.00;99.90
44565;DHT22;30275;51.822;-0.326;2023-04-16T02:43:32;6.00;99.90
44565;DHT22;30275;51.822;-0.326;2023-04-16T02:45:58;6.00;99.90
44565;DHT22;30275;51.822;-0.326;2023-04-16T02:48:24;6.00;99.90
44565;DHT22;30275;51.822;-0.326;2023-04-16T02:50:49;5.90;99.90
44565;DHT22;30275;51.822;-0.326;2023-04-16T02:53:15;6.00;99.90
44565;DHT22;30275;51.822;-0.326;2023-04-16T02:55:41;6.00;99.90
44565;DHT22;30275;51.822;-0.326;2023-04-16T02:58:06;6.00;99.90
44565;DHT22;30275;51.822;-0.326;2023-04-16T03:00:32;6.10;99.90
44565;DHT22;30275;51.822;-0.326;2023-04-16T03:02:57;6.00;99.90
44565;DHT22;30275;51.822;-0.326;2023-04-16T03:05:23;5.90;99.90
44565;DHT22;30275;51.822;-0.326;2023-04-16T03:07:48;6.00;99.90
44565;DHT22;30275;51.822;-0.326;2023-04-16T03:10:15;6.00;99.90
44565;DHT22;30275;51.822;-0.326;2023-04-16T03:12:41;6.00;99.90
44565;DHT22;30275;51.822;-0.326;2023-04-16T03:15:06;6.10;99.90
44565;DHT22;30275;51.822;-0.326;2023-04-16T03:17:32;6.10;99.90
44565;DHT22;30275;51.822;-0.326;2023-04-16T03:19:58;6.20;99.90
44565;DHT22;30275;51.822;-0.326;2023-04-16T03:22:24;6.20;99.90
44565;DHT22;30275;51.822;-0.326;2023-04-16T03:24:49;6.30;99.90
44565;DHT22;30275;51.822;-0.326;2023-04-16T03:27:15;6.30;99.90
44565;DHT22;30275;51.822;-0.326;2023-04-16T03:29:41;6.30;99.90
44565;DHT22;30275;51.822;-0.326;2023-04-16T03:32:06;6.20;99.90
44565;DHT22;30275;51.822;-0.326;2023-04-16T03:34:32;6.20;99.90
44565;DHT22;30275;51.822;-0.326;2023-04-16T03:36:57;6.30;99.90
44565;DHT22;30275;51.822;-0.326;2023-04-16T03:39:23;6.30;99.90
44565;DHT22;30275;51.822;-0.326;2023-04-16T03:41:48;6.30;99.90
44565;DHT22;30275;51.822;-0.326;2023-04-16T03:44:14;6.30;99.90
44565;DHT22;30275;51.822;-0.326;2023-04-16T03:46:39;6.40;99.90
44565;DHT22;30275;51.822;-0.326;2023-04-16T03:49:05;6.40;99.90
44565;DHT22;30275;51.822;-0.326;2023-04-16T03:51:31;6.40;99.90
44565;DHT22;30275;51.822;-0.326;2023-04-16T03:53:56;6.40;99.90
44565;DHT22;30275;51.822;-0.326;2023-04-16T03:56:22;6.40;99.90
44565;DHT22;30275;51.822;-0.326;2023-04-16T03:58:47;6.40;99.90
44565;DHT22;30275;51.822;-0.326;2023-04-16T04:01:13;6.40;99.90
44565;DHT22;30275;51.822;-0.326;2023-04-16T04:03:38;6.50;99.90
44565;DHT22;30275;51.822;-0.326;2023-04-16T04:06:08;6.50;99.90
44565;DHT22;30275;51.822;-0.326;2023-04-16T04:08:33;6.50;99.90
44565;DHT22;30275;51.822;-0.326;2023-04-16T04:10:59;6.60;99.90
44565;DHT22;30275;51.822;-0.326;2023-04-16T04:13:24;6.60;99.90
44565;DHT22;30275;51.822;-0.326;2023-04-16T04:15:50;6.60;99.90
44565;DHT22;30275;51.822;-0.326;2023-04-16T04:18:16;6.70;99.90
44565;DHT22;30275;51.822;-0.326;2023-04-16T04:20:43;6.70;99.90
44565;DHT22;30275;51.822;-0.326;2023-04-16T04:23:09;6.80;99.90
44565;DHT22;30275;51.822;-0.326;2023-04-16T04:25:35;6.90;99.90
44565;DHT22;30275;51.822;-0.326;2023-04-16T04:28:00;6.90;99.90
44565;DHT22;30275;51.822;-0.326;2023-04-16T04:30:26;6.90;99.90
44565;DHT22;30275;51.822;-0.326;2023-04-16T04:32:51;6.90;99.90
44565;DHT22;30275;51.822;-0.326;2023-04-16T04:35:17;6.90;99.90
44565;DHT22;30275;51.822;-0.326;2023-04-16T04:37:42;6.90;99.90
44565;DHT22;30275;51.822;-0.326;2023-04-16T04:40:08;6.90;99.90
44565;DHT22;30275;51.822;-0.326;2023-04-16T04:42:35;6.90;99.90
44565;DHT22;30275;51.822;-0.326;2023-04-16T04:45:01;7.00;99.90
44565;DHT22;30275;51.822;-0.326;2023-04-16T04:47:26;7.00;99.90
44565;DHT22;30275;51.822;-0.326;2023-04-16T04:49:52;7.00;99.90
44565;DHT22;30275;51.822;-0.326;2023-04-16T04:52:17;7.00;99.90
44565;DHT22;30275;51.822;-0.326;2023-04-16T04:54:44;7.00;99.90
44565;DHT22;30275;51.822;-0.326;2023-04-16T04:57:10;7.00;99.90
44565;DHT22;30275;51.822;-0.326;2023-04-16T04:59:36;7.00;99.90
44565;DHT22;30275;51.822;-0.326;2023-04-16T05:02:01;7.10;99.90
44565;DHT22;30275;51.822;-0.326;2023-04-16T05:04:28;7.10;99.90
44565;DHT22;30275;51.822;-0.326;2023-04-16T05:06:54;7.10;99.90
44565;DHT22;30275;51.822;-0.326;2023-04-16T05:09:19;7.20;99.90
44565;DHT22;30275;51.822;-0.326;2023-04-16T05:11:45;7.20;99.90
44565;DHT22;30275;51.822;-0.326;2023-04-16T05:14:11;7.20;99.90
44565;DHT22;30275;51.822;-0.326;2023-04-16T05:16:36;7.20;99.90
44565;DHT22;30275;51.822;-0.326;2023-04-16T05:19:03;7.20;99.90
44565;DHT22;30275;51.822;-0.326;2023-04-16T05:21:28;7.20;99.90
44565;DHT22;30275;51.822;-0.326;2023-04-16T05:23:54;7.30;99.90
44565;DHT22;30275;51.822;-0.326;2023-04-16T05:26:20;7.30;99.90
44565;DHT22;30275;51.822;-0.326;2023-04-16T05:28:45;7.30;99.90
44565;DHT22;30275;51.822;-0.326;2023-04-16T05:31:11;7.30;99.90
44565;DHT22;30275;51.822;-0.326;2023-04-16T05:33:36;7.40;99.90
44565;DHT22;30275;51.822;-0.326;2023-04-16T05:36:02;7.40;99.90
44565;DHT22;30275;51.822;-0.326;2023-04-16T05:38:28;7.40;99.90
44565;DHT22;30275;51.822;-0.326;2023-04-16T05:40:54;7.50;99.90
44565;DHT22;30275;51.822;-0.326;2023-04-16T05:43:19;7.50;99.90
44565;DHT22;30275;51.822;-0.326;2023-04-16T05:45:45;7.40;99.90
44565;DHT22;30275;51.822;-0.326;2023-04-16T05:48:11;7.50;99.90
44565;DHT22;30275;51.822;-0.326;2023-04-16T05:50:37;7.50;99.90
44565;DHT22;30275;51.822;-0.326;2023-04-16T05:53:08;7.50;99.90
44565;DHT22;30275;51.822;-0.326;2023-04-16T05:55:34;7.50;99.90
44565;DHT22;30275;51.822;-0.326;2023-04-16T05:58:01;7.60;99.90
44565;DHT22;30275;51.822;-0.326;2023-04-16T06:00:29;7.70;99.90
44565;DHT22;30275;51.822;-0.326;2023-04-16T06:02:55;7.80;99.90
44565;DHT22;30275;51.822;-0.326;2023-04-16T06:05:20;7.90;99.90
44565;DHT22;30275;51.822;-0.326;2023-04-16T06:07:46;8.00;99.90
44565;DHT22;30275;51.822;-0.326;2023-04-16T06:10:11;8.20;99.90
44565;DHT22;30275;51.822;-0.326;2023-04-16T06:12:37;8.00;99.90
44565;DHT22;30275;51.822;-0.326;2023-04-16T06:15:03;8.20;99.90
44565;DHT22;30275;51.822;-0.326;2023-04-16T06:17:29;8.20;99.90
44565;DHT22;30275;51.822;-0.326;2023-04-16T06:19:55;8.40;99.90
44565;DHT22;30275;51.822;-0.326;2023-04-16T06:22:20;8.50;99.90
44565;DHT22;30275;51.822;-0.326;2023-04-16T06:24:46;8.70;99.90
44565;DHT22;30275;51.822;-0.326;2023-04-16T06:27:12;8.90;99.90
44565;DHT22;30275;51.822;-0.326;2023-04-16T06:29:37;9.10;99.90
44565;DHT22;30275;51.822;-0.326;2023-04-16T06:32:03;9.20;99.90
44565;DHT22;30275;51.822;-0.326;2023-04-16T06:34:29;9.30;99.90
44565;DHT22;30275;51.822;-0.326;2023-04-16T06:36:55;9.50;99.90
44565;DHT22;30275;51.822;-0.326;2023-04-16T06:39:20;9.70;99.90
44565;DHT22;30275;51.822;-0.326;2023-04-16T06:41:47;9.80;99.90
44565;DHT22;30275;51.822;-0.326;2023-04-16T06:44:13;9.90;99.90
44565;DHT22;30275;51.822;-0.326;2023-04-16T06:46:39;10.10;99.90
44565;DHT22;30275;51.822;-0.326;2023-04-16T06:49:05;9.90;99.90
44565;DHT22;30275;51.822;-0.326;2023-04-16T06:51:30;9.60;99.90
44565;DHT22;30275;51.822;-0.326;2023-04-16T06:53:56;9.50;99.90
44565;DHT22;30275;51.822;-0.326;2023-04-16T06:56:21;9.20;99.90
44565;DHT22;30275;51.822;-0.326;2023-04-16T06:58:47;9.30;99.90
44565;DHT22;30275;51.822;-0.326;2023-04-16T07:01:13;9.60;99.90
44565;DHT22;30275;51.822;-0.326;2023-04-16T07:03:38;9.90;99.90
44565;DHT22;30275;51.822;-0.326;2023-04-16T07:06:04;10.20;99.90
44565;DHT22;30275;51.822;-0.326;2023-04-16T07:08:29;10.50;99.90
44565;DHT22;30275;51.822;-0.326;2023-04-16T07:10:55;10.70;99.90
44565;DHT22;30275;51.822;-0.326;2023-04-16T07:13:21;10.80;99.90
44565;DHT22;30275;51.822;-0.326;2023-04-16T07:15:47;10.90;99.90
44565;DHT22;30275;51.822;-0.326;2023-04-16T07:18:12;11.00;99.90
44565;DHT22;30275;51.822;-0.326;2023-04-16T07:20:38;11.40;99.90
44565;DHT22;30275;51.822;-0.326;2023-04-16T07:23:03;11.70;99.90
44565;DHT22;30275;51.822;-0.326;2023-04-16T07:25:29;12.10;99.90
44565;DHT22;30275;51.822;-0.326;2023-04-16T07:27:54;12.50;99.90
44565;DHT22;30275;51.822;-0.326;2023-04-16T07:30:20;12.80;99.90
44565;DHT22;30275;51.822;-0.326;2023-04-16T07:32:45;13.00;99.90
44565;DHT22;30275;51.822;-0.326;2023-04-16T07:35:11;13.00;99.90
44565;DHT22;30275;51.822;-0.326;2023-04-16T07:37:37;13.20;99.90
44565;DHT22;30275;51.822;-0.326;2023-04-16T07:40:02;13.10;99.90
44565;DHT22;30275;51.822;-0.326;2023-04-16T07:42:28;13.30;99.90
44565;DHT22;30275;51.822;-0.326;2023-04-16T07:44:54;13.60;99.90
44565;DHT22;30275;51.822;-0.326;2023-04-16T07:47:19;13.80;99.90
44565;DHT22;30275;51.822;-0.326;2023-04-16T07:49:47;13.80;99.90
44565;DHT22;30275;51.822;-0.326;2023-04-16T07:52:13;13.80;99.90
44565;DHT22;30275;51.822;-0.326;2023-04-16T07:54:39;13.90;99.90
44565;DHT22;30275;51.822;-0.326;2023-04-16T07:57:04;13.60;99.90
44565;DHT22;30275;51.822;-0.326;2023-04-16T07:59:30;13.70;99.90
44565;DHT22;30275;51.822;-0.326;2023-04-16T08:01:55;13.90;99.90
44565;DHT22;30275;51.822;-0.326;2023-04-16T08:04:21;14.30;99.90
44565;DHT22;30275;51.822;-0.326;2023-04-16T08:06:50;14.50;99.90
44565;DHT22;30275;51.822;-0.326;2023-04-16T08:09:17;14.60;99.90
44565;DHT22;30275;51.822;-0.326;2023-04-16T08:11:43;15.30;99.90
44565;DHT22;30275;51.822;-0.326;2023-04-16T08:14:08;15.90;99.90
44565;DHT22;30275;51.822;-0.326;2023-04-16T08:16:34;16.30;99.90
44565;DHT22;30275;51.822;-0.326;2023-04-16T08:18:59;16.90;99.90
44565;DHT22;30275;51.822;-0.326;2023-04-16T08:21:26;17.30;99.90
44565;DHT22;30275;51.822;-0.326;2023-04-16T08:23:52;17.50;99.90
44565;DHT22;30275;51.822;-0.326;2023-04-16T08:26:18;17.80;99.90
44565;DHT22;30275;51.822;-0.326;2023-04-16T08:28:44;18.30;99.90
44565;DHT22;30275;51.822;-0.326;2023-04-16T08:31:10;18.70;99.90
44565;DHT22;30275;51.822;-0.326;2023-04-16T08:33:35;19.10;99.90
44565;DHT22;30275;51.822;-0.326;2023-04-16T08:36:01;19.60;99.90
44565;DHT22;30275;51.822;-0.326;2023-04-16T08:38:27;20.50;98.60
44565;DHT22;30275;51.822;-0.326;2023-04-16T08:40:52;21.10;97.60
44565;DHT22;30275;51.822;-0.326;2023-04-16T08:43:21;21.60;96.10
44565;DHT22;30275;51.822;-0.326;2023-04-16T08:45:48;22.40;95.50
44565;DHT22;30275;51.822;-0.326;2023-04-16T08:48:14;21.40;94.90
44565;DHT22;30275;51.822;-0.326;2023-04-16T08:50:40;20.40;95.50
44565;DHT22;30275;51.822;-0.326;2023-04-16T08:53:09;20.00;96.70
44565;DHT22;30275;51.822;-0.326;2023-04-16T08:55:39;19.90;96.60
44565;DHT22;30275;51.822;-0.326;2023-04-16T08:58:12;19.70;96.40
44565;DHT22;30275;51.822;-0.326;2023-04-16T09:00:39;19.90;95.90
44565;DHT22;30275;51.822;-0.326;2023-04-16T09:03:06;20.20;95.90
44565;DHT22;30275;51.822;-0.326;2023-04-16T09:05:32;20.50;96.00
44565;DHT22;30275;51.822;-0.326;2023-04-16T09:07:58;20.50;95.50
44565;DHT22;30275;51.822;-0.326;2023-04-16T09:10:25;20.40;95.10
44565;DHT22;30275;51.822;-0.326;2023-04-16T09:12:51;20.60;94.80
44565;DHT22;30275;51.822;-0.326;2023-04-16T09:15:16;20.70;94.50
44565;DHT22;30275;51.822;-0.326;2023-04-16T09:17:44;20.30;92.60
44565;DHT22;30275;51.822;-0.326;2023-04-16T09:20:11;20.70;92.80
44565;DHT22;30275;51.822;-0.326;2023-04-16T09:22:37;20.90;92.10
44565;DHT22;30275;51.822;-0.326;2023-04-16T09:25:05;20.10;92.50
44565;DHT22;30275;51.822;-0.326;2023-04-16T09:27:31;19.70;93.50
44565;DHT22;30275;51.822;-0.326;2023-04-16T09:29:57;19.90;94.20
44565;DHT22;30275;51.822;-0.326;2023-04-16T09:32:27;19.60;94.10
44565;DHT22;30275;51.822;-0.326;2023-04-16T09:34:58;18.40;95.50
44565;DHT22;30275;51.822;-0.326;2023-04-16T09:37:28;17.70;96.40
44565;DHT22;30275;51.822;-0.326;2023-04-16T09:39:59;16.70;97.40
44565;DHT22;30275;51.822;-0.326;2023-04-16T09:42:28;16.80;97.90
44565;DHT22;30275;51.822;-0.326;2023-04-16T09:44:54;17.50;97.50
44565;DHT22;30275;51.822;-0.326;2023-04-16T09:47:21;18.70;96.60
44565;DHT22;30275;51.822;-0.326;2023-04-16T09:49:47;18.90;95.10
44565;DHT22;30275;51.822;-0.326;2023-04-16T09:52:14;19.10;95.60
44565;DHT22;30275;51.822;-0.326;2023-04-16T09:54:51;20.40;94.70
44565;DHT22;30275;51.822;-0.326;2023-04-16T09:57:21;21.60;93.10
44565;DHT22;30275;51.822;-0.326;2023-04-16T09:59:51;23.40;91.50
44565;DHT22;30275;51.822;-0.326;2023-04-16T10:02:16;25.10;90.00
44565;DHT22;30275;51.822;-0.326;2023-04-16T10:04:49;26.20;86.60
44565;DHT22;30275;51.822;-0.326;2023-04-16T10:07:16;25.60;85.80
44565;DHT22;30275;51.822;-0.326;2023-04-16T10:09:42;24.80;88.00
44565;DHT22;30275;51.822;-0.326;2023-04-16T10:12:08;24.10;87.00
44565;DHT22;30275;51.822;-0.326;2023-04-16T10:14:34;23.40;86.10
44565;DHT22;30275;51.822;-0.326;2023-04-16T10:17:00;23.10;87.40
44565;DHT22;30275;51.822;-0.326;2023-04-16T10:19:27;22.50;86.40
44565;DHT22;30275;51.822;-0.326;2023-04-16T10:21:54;21.60;86.20
44565;DHT22;30275;51.822;-0.326;2023-04-16T10:24:20;20.90;87.10
44565;DHT22;30275;51.822;-0.326;2023-04-16T10:26:46;20.00;89.20
44565;DHT22;30275;51.822;-0.326;2023-04-16T10:29:14;19.40;90.40
44565;DHT22;30275;51.822;-0.326;2023-04-16T10:31:40;18.80;89.70
44565;DHT22;30275;51.822;-0.326;2023-04-16T10:34:08;18.30;90.70
44565;DHT22;30275;51.822;-0.326;2023-04-16T10:36:37;18.40;91.80
44565;DHT22;30275;51.822;-0.326;2023-04-16T10:39:03;18.50;93.00
44565;DHT22;30275;51.822;-0.326;2023-04-16T10:41:31;18.50;93.50
44565;DHT22;30275;51.822;-0.326;2023-04-16T10:44:08;18.10;93.90
44565;DHT22;30275;51.822;-0.326;2023-04-16T10:46:38;17.60;94.60
44565;DHT22;30275;51.822;-0.326;2023-04-16T10:49:17;17.40;95.40
44565;DHT22;30275;51.822;-0.326;2023-04-16T10:52:08;17.30;95.60
44565;DHT22;30275;51.822;-0.326;2023-04-16T10:54:35;17.40;95.30
44565;DHT22;30275;51.822;-0.326;2023-04-16T10:57:06;17.60;95.10
44565;DHT22;30275;51.822;-0.326;2023-04-16T10:59:34;18.10;94.70
44565;DHT22;30275;51.822;-0.326;2023-04-16T11:02:24;18.30;94.00
44565;DHT22;30275;51.822;-0.326;2023-04-16T11:04:48;18.40;94.00
44565;DHT22;30275;51.822;-0.326;2023-04-16T11:07:16;19.10;93.90
44565;DHT22;30275;51.822;-0.326;2023-04-16T11:09:59;19.50;92.60
44565;DHT22;30275;51.822;-0.326;2023-04-16T11:15:08;19.20;92.30
44565;DHT22;30275;51.822;-0.326;2023-04-16T11:17:47;18.50;91.60
44565;DHT22;30275;51.822;-0.326;2023-04-16T11:20:23;18.20;92.60
44565;DHT22;30275;51.822;-0.326;2023-04-16T11:22:53;18.30;92.60
44565;DHT22;30275;51.822;-0.326;2023-04-16T11:25:20;18.70;93.00
44565;DHT22;30275;51.822;-0.326;2023-04-16T11:27:47;19.60;92.80
44565;DHT22;30275;51.822;-0.326;2023-04-16T11:30:13;20.00;91.10
44565;DHT22;30275;51.822;-0.326;2023-04-16T11:32:39;20.00;90.80
44565;DHT22;30275;51.822;-0.326;2023-04-16T11:35:14;21.30;90.20
44565;DHT22;30275;51.822;-0.326;2023-04-16T11:37:40;21.70;87.90
44565;DHT22;30275;51.822;-0.326;2023-04-16T11:40:07;23.60;86.70
44565;DHT22;30275;51.822;-0.326;2023-04-16T11:42:34;23.40;83.50
44565;DHT22;30275;51.822;-0.326;2023-04-16T11:45:06;24.10;83.20
44565;DHT22;30275;51.822;-0.326;2023-04-16T11:47:34;24.30;82.10
44565;DHT22;30275;51.822;-0.326;2023-04-16T11:52:49;22.80;84.10
44565;DHT22;30275;51.822;-0.326;2023-04-16T11:55:15;22.10;85.20
44565;DHT22;30275;51.822;-0.326;2023-04-16T11:57:41;21.10;85.20
44565;DHT22;30275;51.822;-0.326;2023-04-16T12:00:06;21.00;87.30
44565;DHT22;30275;51.822;-0.326;2023-04-16T12:02:39;21.30;86.50
44565;DHT22;30275;51.822;-0.326;2023-04-16T12:05:24;20.60;86.30
44565;DHT22;30275;51.822;-0.326;2023-04-16T12:07:53;20.90;87.40
44565;DHT22;30275;51.822;-0.326;2023-04-16T12:10:19;20.60;86.30
44565;DHT22;30275;51.822;-0.326;2023-04-16T12:12:45;20.90;86.20
44565;DHT22;30275;51.822;-0.326;2023-04-16T12:15:10;19.80;88.60
44565;DHT22;30275;51.822;-0.326;2023-04-16T12:17:37;19.70;88.50
44565;DHT22;30275;51.822;-0.326;2023-04-16T12:20:08;19.80;88.10
44565;DHT22;30275;51.822;-0.326;2023-04-16T12:22:47;19.90;88.80
44565;DHT22;30275;51.822;-0.326;2023-04-16T12:25:15;20.50;87.40
44565;DHT22;30275;51.822;-0.326;2023-04-16T12:27:41;20.80;88.50
44565;DHT22;30275;51.822;-0.326;2023-04-16T12:30:08;20.40;86.80
44565;DHT22;30275;51.822;-0.326;2023-04-16T12:32:34;19.50;89.80
44565;DHT22;30275;51.822;-0.326;2023-04-16T12:34:59;18.80;90.10
44565;DHT22;30275;51.822;-0.326;2023-04-16T12:37:25;18.50;90.20
44565;DHT22;30275;51.822;-0.326;2023-04-16T12:39:51;18.10;90.30
44565;DHT22;30275;51.822;-0.326;2023-04-16T12:42:17;18.20;91.70
44565;DHT22;30275;51.822;-0.326;2023-04-16T12:44:42;18.40;91.90
44565;DHT22;30275;51.822;-0.326;2023-04-16T12:47:08;18.20;91.90
44565;DHT22;30275;51.822;-0.326;2023-04-16T12:49:34;18.30;92.00
44565;DHT22;30275;51.822;-0.326;2023-04-16T12:52:01;18.20;91.70
44565;DHT22;30275;51.822;-0.326;2023-04-16T12:54:26;18.30;90.70
44565;DHT22;30275;51.822;-0.326;2023-04-16T12:56:58;18.50;91.90
44565;DHT22;30275;51.822;-0.326;2023-04-16T12:59:24;18.60;91.00
44565;DHT22;30275;51.822;-0.326;2023-04-16T13:01:49;18.30;91.10
44565;DHT22;30275;51.822;-0.326;2023-04-16T13:04:15;17.70;91.70
44565;DHT22;30275;51.822;-0.326;2023-04-16T13:06:43;17.70;91.40
44565;DHT22;30275;51.822;-0.326;2023-04-16T13:09:09;17.60;92.20
44565;DHT22;30275;51.822;-0.326;2023-04-16T13:11:36;18.00;92.60
44565;DHT22;30275;51.822;-0.326;2023-04-16T13:14:01;18.40;92.10
44565;DHT22;30275;51.822;-0.326;2023-04-16T13:16:27;18.20;91.20
44565;DHT22;30275;51.822;-0.326;2023-04-16T13:18:52;18.50;91.80
44565;DHT22;30275;51.822;-0.326;2023-04-16T13:21:18;18.90;91.90
44565;DHT22;30275;51.822;-0.326;2023-04-16T13:23:44;19.20;91.60
44565;DHT22;30275;51.822;-0.326;2023-04-16T13:26:09;18.50;90.50
44565;DHT22;30275;51.822;-0.326;2023-04-16T13:28:37;17.60;92.80
44565;DHT22;30275;51.822;-0.326;2023-04-16T13:31:02;17.80;94.00
44565;DHT22;30275;51.822;-0.326;2023-04-16T13:33:28;17.60;94.30
44565;DHT22;30275;51.822;-0.326;2023-04-16T13:35:54;17.20;94.10
44565;DHT22;30275;51.822;-0.326;2023-04-16T13:38:20;16.90;94.70
44565;DHT22;30275;51.822;-0.326;2023-04-16T13:40:45;16.10;94.90
44565;DHT22;30275;51.822;-0.326;2023-04-16T13:43:11;15.60;95.70
44565;DHT22;30275;51.822;-0.326;2023-04-16T13:45:38;15.40;96.60
44565;DHT22;30275;51.822;-0.326;2023-04-16T13:48:04;15.50;96.50
44565;DHT22;30275;51.822;-0.326;2023-04-16T13:50:29;15.70;96.70
44565;DHT22;30275;51.822;-0.326;2023-04-16T13:52:55;15.90;96.90
44565;DHT22;30275;51.822;-0.326;2023-04-16T13:55:21;16.10;96.90
44565;DHT22;30275;51.822;-0.326;2023-04-16T13:57:47;16.10;96.80
44565;DHT22;30275;51.822;-0.326;2023-04-16T14:00:14;16.00;97.10
44565;DHT22;30275;51.822;-0.326;2023-04-16T14:02:41;16.00;97.60
44565;DHT22;30275;51.822;-0.326;2023-04-16T14:05:07;16.20;97.70
44565;DHT22;30275;51.822;-0.326;2023-04-16T14:07:33;16.20;97.70
44565;DHT22;30275;51.822;-0.326;2023-04-16T14:09:59;16.20;97.70
44565;DHT22;30275;51.822;-0.326;2023-04-16T14:12:24;16.40;98.10
44565;DHT22;30275;51.822;-0.326;2023-04-16T14:14:51;16.60;98.10
44565;DHT22;30275;51.822;-0.326;2023-04-16T14:17:16;16.80;97.60
44565;DHT22;30275;51.822;-0.326;2023-04-16T14:19:42;17.00;96.60
44565;DHT22;30275;51.822;-0.326;2023-04-16T14:22:07;17.20;96.40
44565;DHT22;30275;51.822;-0.326;2023-04-16T14:24:33;17.40;96.70
44565;DHT22;30275;51.822;-0.326;2023-04-16T14:26:58;17.50;96.50
44565;DHT22;30275;51.822;-0.326;2023-04-16T14:29:24;17.30;96.30
44565;DHT22;30275;51.822;-0.326;2023-04-16T14:31:50;17.70;96.20
44565;DHT22;30275;51.822;-0.326;2023-04-16T14:34:15;17.80;96.30
44565;DHT22;30275;51.822;-0.326;2023-04-16T14:36:42;18.10;96.40
44565;DHT22;30275;51.822;-0.326;2023-04-16T14:39:07;18.10;96.50
44565;DHT22;30275;51.822;-0.326;2023-04-16T14:41:33;17.80;95.40
44565;DHT22;30275;51.822;-0.326;2023-04-16T14:43:59;17.60;95.50
44565;DHT22;30275;51.822;-0.326;2023-04-16T14:46:25;17.80;96.20
44565;DHT22;30275;51.822;-0.326;2023-04-16T14:48:51;18.00;96.20
44565;DHT22;30275;51.822;-0.326;2023-04-16T14:51:17;18.20;95.40
44565;DHT22;30275;51.822;-0.326;2023-04-16T14:53:43;18.50;95.10
44565;DHT22;30275;51.822;-0.326;2023-04-16T14:56:09;18.60;94.90
44565;DHT22;30275;51.822;-0.326;2023-04-16T14:58:35;18.30;94.90
44565;DHT22;30275;51.822;-0.326;2023-04-16T15:01:02;18.40;94.90
44565;DHT22;30275;51.822;-0.326;2023-04-16T15:03:29;18.70;94.40
44565;DHT22;30275;51.822;-0.326;2023-04-16T15:05:56;18.70;95.10
44565;DHT22;30275;51.822;-0.326;2023-04-16T15:08:22;18.60;95.60
44565;DHT22;30275;51.822;-0.326;2023-04-16T15:10:48;18.60;95.30
44565;DHT22;30275;51.822;-0.326;2023-04-16T15:13:13;18.40;95.40
44565;DHT22;30275;51.822;-0.326;2023-04-16T15:15:39;18.60;95.00
44565;DHT22;30275;51.822;-0.326;2023-04-16T15:18:05;18.60;94.80
44565;DHT22;30275;51.822;-0.326;2023-04-16T15:20:31;18.20;95.50
44565;DHT22;30275;51.822;-0.326;2023-04-16T15:22:56;17.60;95.90